Timeline UpdatesTrip UpdatesNews PostsPvt PostsTravel TipsAdmin PostsConv PostsFollowed PostsChat RequestsBlog PostsPNR Posts

Disclaimer
Search
 
 
Thu Oct 2, 2014 17:59:52 ISTHomeTrainsΣChainsAtlasPNRForumGalleryNewsFAQTripsMembersLoginFeedback
No Recent News for this Train
Other Trains in the News **new
Latest...
..
Thu Sep 27, 2012 (12:15AM)
⇐ Return Journey: Train# 51426

51425/ParliVaijnath-Miraj Passenger (UnReserved)

Time-Table HAS CHANGED.
Sep 03 (3:22PM)
Change Departure Station:
Change Arrival Station:
Post a Train Travel TipPost a Train Travel Tip **new
Post a Comment/Question/Picture/VideoPost a Comment/Question/Picture/Video
Inaugural Run
Sun Feb 20, 2011
Pantry/Catering
✕ NO Pantry Car
✕ NO Catering
Loco/Rake Reversals
LTRR/Latur Road Junction (3);
RSA - Rake Sharing
51419 (MRJ-UBL Passenger).
Rake/Coach Composition
SLR-2, UR-6,
Loco
PUNE WDM 2/3
News    PNR    Forum    Time-Table    Availability    Fare Chart    Map    Arr/Dep History    Trips    Gallery    ΣChains    X/O    Timeline    
Travel Time: 1h 46m    -2 halts    Distance: 82 km    Avg Speed: 46 km/hr
Type: Passenger
Zone: CR/Central
Departs @ 07:25 (Avg 38m late)
Platform# ???
SMTWTFS
Parli Vaijnath/PRLI 
Arrives @ 09:11
Platform# ???
SMTWTFS
Bhatangli/BANL 

-2 halts. 8 intermediate Stations between Parli Vaijnath and Bhatangli

Hide intermediate Stations  Show Old Time-Table

#CodeStation NameX/OArrivesAvgDepartsAvgHaltPFDay#KmSpeedElevZoneAddress
1PRLIParli Vaijnath (3)  -07:25+38--10.099462mSCRParli-Vaijnath, Maharashtra
2GTUGhat Nandur (1)  07:39+1:0207:40+1:021m1123.226634mSCRGhat Nadur, Maharashtra
3MRTYMurti (1) new halt!!  07:50-07:51-1m1127.6-624mSCRState Highway 169, Maharashtra
4PNFPangaon (1)  07:54+5307:55+531m1135.748637mSCRPangaon, Maharashtra
5KRPRKarepur (1)  08:04-08:05-1m1143.0129620mSCRState Highway 168, Maharashtra
6JOAJanwal (1)  08:09+1:2808:10+1:281m1151.6104645mSCRLatur, Maharashtra
7WDLNWadwal Nagnath (1)  08:14-08:15-1m1158.514638mSCRWadwal Nagnath, Maharashtra
8LTRRLatur Road Junction (3)08:35+1:0908:50+1:0015m1163.156648mSCRLatur Road ph.no 02381 258044, Maharashtra
8.1GANIGharni  09:04-09:04-  176.5 56623mCRMSH3, Maharashtra
8.2BANLBhatangli  09:11-09:11-  182.4 56591mCRMSH3, Maharashtra
9LURLatur (2)  09:25+5909:30+1:045m1195.838622mCRLatur, Maharashtra
10HGLHarangul  09:44-09:45-1m--1104.760644mCRState Highway 77, Maharashtra
11OSAAusa Road  09:55+1:0909:56+1:161m--1114.766659mCRState Highway 77, Maharashtra
11.1NEINeoli  10:06-10:06-  1125.6 66686mCRState Highway 77, Maharashtra
12MRXMurud  10:12-10:13-1m--1132.250700mCRLatur, Maharashtra
13PCPPalsap  10:21-10:22-1m--1138.840668mCRState Highway 77, Maharashtra
14TERThair  10:29-10:30-1m--1143.520661mCRState Highway 77, Maharashtra
15DKYDhokiX  10:45+5310:47+562m--1148.537667mCRDhoki Town, Maharashtra
16KMRDKalamb Road  10:57-10:58-1m--1154.657674mCRTadwale, Maharashtra
17YSIYedshi  11:09+5511:10+581m--1165.127691mCRNational Highway 211, Maharashtra
18UMDOsmanabad (2)  11:32+5011:35+523m11175.159679mCROsmanabad, Maharashtra
19PJRPangri  11:54+5211:55+561m--1193.758554mCRState Highway 77, Maharashtra
19.1KCBKuslamb  12:00-12:00-  1198.7 58534mCRState Highway 77, Maharashtra
20BTWBarsi Town (1)  12:13+4712:15+482m11211.158528mCRBarshi, Maharashtra
20.1UPIUplai  12:27-12:27-  1222.6 58501mCRState Highway 77, Maharashtra
21SEIShendri  12:33+5712:35+592m--1228.448499mCRState Highway 77, Maharashtra
21.1MGOMahisgaon  12:49-12:49-  1239.4 48508mCRState Highway 77, Maharashtra
21.2CNHLChink Hill  12:54-12:54-  1243.5 48518mCRState Highway 77, Maharashtra
22KWVKurduvadi Junction (4)X  13:00+5114:00+2760m41248.458516mCRKurduvadi Dist-Solapur, Maharashtra
23LAULLaul  14:09-14:10-1m11257.157530mCRState Highway 161, Maharashtra
23.1PSSPadsali  14:14-14:14-  1260.8 57552mCRLaul, Maharashtra
24MLBModnimb  14:24+3014:25+321m11270.557510mCRShetfal, Maharashtra
25AHIAshti  14:34-14:35-1m--1279.053489mCRState Highway 161, Maharashtra
25.1BBVBabhulgaon  14:43-14:43-  1285.8 53479mCRState Highway 161, Maharashtra
26PVRPandharpur (3)  15:00+3015:05+325m11301.143469mCRPandharpur Ph:02186-223227, Maharashtra
27BHLIBohali  15:19-15:20-1m--1311.164499mCRState Highway 161, Maharashtra
28BMNIBamani  15:29-15:30-1m11320.775485mCRState Highway 161, Maharashtra
29SGLASangola (2)X  15:38+2215:40+232m--1330.783505mCRSangole, Maharashtra
30WSDWasud  15:47-15:48-1m--1340.437523mCRsolapur, Maharashtra
31JVAJavale  15:57-15:58-1m--1346.070538mCRState Highway 71, Maharashtra
32MSDGMasoba Dongargaon (1)  16:02-16:03-1m--1350.773548mCRJath, Maharashtra
33JTRDJath Road  16:09+2416:10+251m--1358.070567mCRState Highway 71, Maharashtra
34GLVGulvanchi  16:19-16:20-1m--1368.551623mCRJath Rd, Maharashtra
35DLGNDhalgaon  16:29+3216:30+331m--1376.055669mCRJath Rd, Maharashtra
36LNPLangarpeth  16:35-16:36-1m--1380.653658mCRJath Rd, Maharashtra
37KVKKavathe Mahankal  16:49+3416:50+351m--1392.140637mCRKavthe Mahankal, Maharashtra
38AGDLAgran Dhulgaon  16:55-16:56-1m--1395.555611mCRJath Rd, Maharashtra
39SGRESulgare  17:05+3317:06+341m--1403.781627mCRJath Rd, Maharashtra
40BLNKBelanki  17:11-17:12-1m--1410.531625mCRJath Rd, Maharashtra
41ARAGArag  17:22+3817:23+431m--1415.633650mCRJath Rd, Maharashtra
41.1BDKBedag  17:29-17:29-  1418.7 33649mCRErandoli, Maharashtra
42BLWDBolwad  17:34-17:35-1m--1421.622646mCRBolwad, Maharashtra
43MRJMiraj Junction (6)  18:20+34-51437.9-554mCRMiraj 416410, Maharashtra
Scroll to Top
Scroll to Bottom